Newport Beach, CA (92660)

11:17 AM PDT on August 20, 2014 (GMT -0700)
Upper Newport Bay - W6IT | Change Station
CLOSE
Current Station
Personal Weather Station
Location: Newport Beach, CA
Elevation: 75 ft
Nearby Weather Stations

Elev 75 ft 33.65 °N, 117.90 °W | Updated 0 second ago

Scattered Clouds
Scattered Clouds
75.9 °F
Feels Like 78 °F
N
1.0
Wind Variable Wind from SSW
Gusts 6.0 mph

Today
High -- | Low -- °F
--% Chance of Precip.
Yesterday
High -- | Low -- °F
Precip. -- in
6:17 AM 7:31 PM
Waning Crescent, 20% visible
Pressure 29.94 in
Visibility 10.0 miles
Clouds Scattered Clouds 2700 ft
Scattered Clouds 12000 ft
Heat Index 78 °F
Dew Point 65 °F
Humidity 69%
Rainfall 0.00 in
Snow Depth Not available.
UV 7 out of 12
Pollen 5.60 out of 12
Ozone Good
Flu Activity Not available.
METAR KSNA 201753Z 19004KT 10SM SCT027 SCT120 26/16 A2994 RMK AO2 SLP139 CB DSNT NE AND SE N T02560156 10256 20211 51007

More Conditions Fewer Conditions

Pressure 29.94 in
Visibility 10.0 miles
Clouds Scattered Clouds 2700 ft
Scattered Clouds 12000 ft
Heat Index 78 °F
Dew Point 65 °F
Humidity 69%
Rainfall 0.00 in
Snow Depth Not available.
UV 7 out of 12
Pollen 5.60 out of 12
Ozone Good
Flu Activity Not available.
METAR KSNA 201753Z 19004KT 10SM SCT027 SCT120 26/16 A2994 RMK AO2 SLP139 CB DSNT NE AND SE N T02560156 10256 20211 51007

More Conditions Fewer Conditions

10-Day Weather Forecast

Almanac

Astronomy

Aug. 20, 2014 Rise Set
Actual Time 6:17 AM PDT 7:31 PM PDT
Civil Twilight 5:51 AM PDT 7:57 PM PDT
Nautical Twilight 5:20 AM PDT 8:28 PM PDT
Astronomical Twilight 4:47 AM PDT 9:00 PM PDT
Moon 2:06 AM PDT 4:15 PM PDT
Length of Visible Light 14h 06m
Length of Day
13h 14m
Tomorrow will be 1m 54s shorter.
Waning Crescent, 20% of the Moon is Illuminated
Today
Waning Crescent
Aug 25
New
Sep 2
First Quarter
Sep 8
Full
Sep 15
Last Quarter

Today's Extremes

State Highs State Lows

Community

WunderPhotos

Upload Photos

1,745,703 photos uploaded!

WunderBlogs® & News

Nearby

Air Quality

  Air Quality AQ Index Pollutant
Yesterday Good
OZONE
Current Good
OZONE
Thursday Good
PM10
Thursday Good
OZONE
Thursday Good
CO
Thursday Good
NO2

Snow Depth

Station Depth Elevation
Summit Meadow 0 in 9122 ft
Blue Lakes 0 in 8000 ft
Adin Mountain 0 in 6200 ft
Cedar Pass 0 in 7100 ft

Earthquake Activity

City Distance Mag. Time & Date
Malibu Beach, California 53 miles 3.4 10:03 AM PDT
2014-08-15
Yucca Valley, California 94 miles 3.8 8:57 PM PDT
2014-08-14
Salton City, California 112 miles 2.6 6:58 AM PDT
2014-08-14
Ojai, California 96 miles 2.6 8:43 PM PDT
2014-08-13
Minimum magnitude displayed is 2.5.

Coastal Water Temperatures

Place Temperature
Santa Monica Pier 71.1 °F
Los Angeles, CA 66.9 °F
La Jolla, CA 64.0 °F

Nearby Weather Stations